sensor_id;sensor_type;location;lat;lon;timestamp;temperature;humidity
5786;DHT22;2919;48.630;9.000;2022-07-30T00:02:20;16.70;99.90
5786;DHT22;2919;48.630;9.000;2022-07-30T00:04:46;16.60;99.90
5786;DHT22;2919;48.630;9.000;2022-07-30T00:07:12;16.60;99.90
5786;DHT22;2919;48.630;9.000;2022-07-30T00:09:38;16.50;99.90
5786;DHT22;2919;48.630;9.000;2022-07-30T00:12:07;16.50;99.90
5786;DHT22;2919;48.630;9.000;2022-07-30T00:14:34;16.50;99.90
5786;DHT22;2919;48.630;9.000;2022-07-30T00:17:00;16.50;99.90
5786;DHT22;2919;48.630;9.000;2022-07-30T00:19:27;16.50;99.90
5786;DHT22;2919;48.630;9.000;2022-07-30T00:21:52;16.50;99.90
5786;DHT22;2919;48.630;9.000;2022-07-30T00:24:19;16.60;99.90
5786;DHT22;2919;48.630;9.000;2022-07-30T00:26:45;16.60;99.90
5786;DHT22;2919;48.630;9.000;2022-07-30T00:29:11;16.60;99.90
5786;DHT22;2919;48.630;9.000;2022-07-30T00:31:36;16.70;99.90
5786;DHT22;2919;48.630;9.000;2022-07-30T00:34:02;16.70;99.90
5786;DHT22;2919;48.630;9.000;2022-07-30T00:36:27;16.70;99.90
5786;DHT22;2919;48.630;9.000;2022-07-30T00:38:53;16.70;99.90
5786;DHT22;2919;48.630;9.000;2022-07-30T00:41:19;16.70;99.90
5786;DHT22;2919;48.630;9.000;2022-07-30T00:43:45;16.70;99.90
5786;DHT22;2919;48.630;9.000;2022-07-30T00:46:11;16.60;99.90
5786;DHT22;2919;48.630;9.000;2022-07-30T00:48:36;16.60;99.90
5786;DHT22;2919;48.630;9.000;2022-07-30T00:51:02;16.60;99.90
5786;DHT22;2919;48.630;9.000;2022-07-30T00:53:28;16.60;99.90
5786;DHT22;2919;48.630;9.000;2022-07-30T00:55:54;16.60;99.90
5786;DHT22;2919;48.630;9.000;2022-07-30T00:58:19;16.60;99.90
5786;DHT22;2919;48.630;9.000;2022-07-30T01:00:45;16.70;99.90
5786;DHT22;2919;48.630;9.000;2022-07-30T01:03:11;16.70;99.90
5786;DHT22;2919;48.630;9.000;2022-07-30T01:05:36;16.70;99.90
5786;DHT22;2919;48.630;9.000;2022-07-30T01:08:02;16.70;99.90
5786;DHT22;2919;48.630;9.000;2022-07-30T01:10:27;16.70;99.90
5786;DHT22;2919;48.630;9.000;2022-07-30T01:12:53;16.70;99.90
5786;DHT22;2919;48.630;9.000;2022-07-30T01:15:19;16.70;99.90
5786;DHT22;2919;48.630;9.000;2022-07-30T01:17:47;16.70;99.90
5786;DHT22;2919;48.630;9.000;2022-07-30T01:20:22;16.70;99.90
5786;DHT22;2919;48.630;9.000;2022-07-30T01:23:00;16.70;99.90
5786;DHT22;2919;48.630;9.000;2022-07-30T01:28:16;16.70;99.90
5786;DHT22;2919;48.630;9.000;2022-07-30T01:30:42;16.70;99.90
5786;DHT22;2919;48.630;9.000;2022-07-30T01:33:13;16.70;99.90
5786;DHT22;2919;48.630;9.000;2022-07-30T01:35:39;16.70;99.90
5786;DHT22;2919;48.630;9.000;2022-07-30T01:38:06;16.70;99.90
5786;DHT22;2919;48.630;9.000;2022-07-30T01:40:34;16.70;99.90
5786;DHT22;2919;48.630;9.000;2022-07-30T01:43:01;16.70;99.90
5786;DHT22;2919;48.630;9.000;2022-07-30T01:45:29;16.70;99.90
5786;DHT22;2919;48.630;9.000;2022-07-30T01:47:57;16.70;99.90
5786;DHT22;2919;48.630;9.000;2022-07-30T01:50:25;16.60;99.90
5786;DHT22;2919;48.630;9.000;2022-07-30T01:52:53;16.60;99.90
5786;DHT22;2919;48.630;9.000;2022-07-30T01:55:24;16.50;99.90
5786;DHT22;2919;48.630;9.000;2022-07-30T01:57:52;16.50;99.90
5786;DHT22;2919;48.630;9.000;2022-07-30T02:00:18;16.50;99.90
5786;DHT22;2919;48.630;9.000;2022-07-30T02:02:45;16.40;99.90
5786;DHT22;2919;48.630;9.000;2022-07-30T02:05:10;16.30;99.90
5786;DHT22;2919;48.630;9.000;2022-07-30T02:07:46;16.20;99.90
5786;DHT22;2919;48.630;9.000;2022-07-30T02:10:18;16.10;99.90
5786;DHT22;2919;48.630;9.000;2022-07-30T02:12:50;16.00;99.90
5786;DHT22;2919;48.630;9.000;2022-07-30T02:15:33;16.00;99.90
5786;DHT22;2919;48.630;9.000;2022-07-30T02:18:16;15.90;99.90
5786;DHT22;2919;48.630;9.000;2022-07-30T02:20:45;15.80;99.90
5786;DHT22;2919;48.630;9.000;2022-07-30T02:23:13;15.70;99.90
5786;DHT22;2919;48.630;9.000;2022-07-30T02:25:45;15.70;99.90
5786;DHT22;2919;48.630;9.000;2022-07-30T02:28:13;15.60;99.90
5786;DHT22;2919;48.630;9.000;2022-07-30T02:30:49;15.60;99.90
5786;DHT22;2919;48.630;9.000;2022-07-30T02:33:16;15.60;99.90
5786;DHT22;2919;48.630;9.000;2022-07-30T02:35:43;15.50;99.90
5786;DHT22;2919;48.630;9.000;2022-07-30T02:38:11;15.50;99.90
5786;DHT22;2919;48.630;9.000;2022-07-30T02:40:40;15.40;99.90
5786;DHT22;2919;48.630;9.000;2022-07-30T02:43:06;15.40;99.90
5786;DHT22;2919;48.630;9.000;2022-07-30T02:45:32;15.40;99.90
5786;DHT22;2919;48.630;9.000;2022-07-30T02:48:04;15.40;99.90
5786;DHT22;2919;48.630;9.000;2022-07-30T02:50:34;15.40;99.90
5786;DHT22;2919;48.630;9.000;2022-07-30T02:53:01;15.40;99.90
5786;DHT22;2919;48.630;9.000;2022-07-30T02:55:29;15.30;99.90
5786;DHT22;2919;48.630;9.000;2022-07-30T02:57:56;15.30;99.90
5786;DHT22;2919;48.630;9.000;2022-07-30T03:00:24;15.30;99.90
5786;DHT22;2919;48.630;9.000;2022-07-30T03:02:51;15.30;99.90
5786;DHT22;2919;48.630;9.000;2022-07-30T03:05:17;15.30;99.90
5786;DHT22;2919;48.630;9.000;2022-07-30T03:07:44;15.30;99.90
5786;DHT22;2919;48.630;9.000;2022-07-30T03:10:11;15.30;99.90
5786;DHT22;2919;48.630;9.000;2022-07-30T03:12:38;15.30;99.90
5786;DHT22;2919;48.630;9.000;2022-07-30T03:15:05;15.30;99.90
5786;DHT22;2919;48.630;9.000;2022-07-30T03:17:36;15.20;99.90
5786;DHT22;2919;48.630;9.000;2022-07-30T03:20:08;15.20;99.90
5786;DHT22;2919;48.630;9.000;2022-07-30T03:22:39;15.10;99.90
5786;DHT22;2919;48.630;9.000;2022-07-30T03:25:07;15.10;99.90
5786;DHT22;2919;48.630;9.000;2022-07-30T03:27:35;15.10;99.90
5786;DHT22;2919;48.630;9.000;2022-07-30T03:30:03;15.00;99.90
5786;DHT22;2919;48.630;9.000;2022-07-30T03:32:29;15.00;99.90
5786;DHT22;2919;48.630;9.000;2022-07-30T03:34:56;15.00;99.90
5786;DHT22;2919;48.630;9.000;2022-07-30T03:37:23;15.00;99.90
5786;DHT22;2919;48.630;9.000;2022-07-30T03:39:49;15.00;99.90
5786;DHT22;2919;48.630;9.000;2022-07-30T03:42:15;14.90;99.90
5786;DHT22;2919;48.630;9.000;2022-07-30T03:44:41;14.90;99.90
5786;DHT22;2919;48.630;9.000;2022-07-30T03:47:11;15.00;99.90
5786;DHT22;2919;48.630;9.000;2022-07-30T03:49:37;15.00;99.90
5786;DHT22;2919;48.630;9.000;2022-07-30T03:52:03;15.10;99.90
5786;DHT22;2919;48.630;9.000;2022-07-30T03:54:31;15.10;99.90
5786;DHT22;2919;48.630;9.000;2022-07-30T03:57:03;15.10;99.90
5786;DHT22;2919;48.630;9.000;2022-07-30T03:59:29;15.10;99.90
5786;DHT22;2919;48.630;9.000;2022-07-30T04:02:00;15.10;99.90
5786;DHT22;2919;48.630;9.000;2022-07-30T04:04:27;15.10;99.90
5786;DHT22;2919;48.630;9.000;2022-07-30T04:06:53;15.10;99.90
5786;DHT22;2919;48.630;9.000;2022-07-30T04:09:18;15.20;99.90
5786;DHT22;2919;48.630;9.000;2022-07-30T04:11:44;15.30;99.90
5786;DHT22;2919;48.630;9.000;2022-07-30T04:14:10;15.30;99.90
5786;DHT22;2919;48.630;9.000;2022-07-30T04:19:27;15.30;99.90
5786;DHT22;2919;48.630;9.000;2022-07-30T04:21:54;15.40;99.90
5786;DHT22;2919;48.630;9.000;2022-07-30T04:24:21;15.40;99.90
5786;DHT22;2919;48.630;9.000;2022-07-30T04:26:49;15.40;99.90
5786;DHT22;2919;48.630;9.000;2022-07-30T04:29:16;15.30;99.90
5786;DHT22;2919;48.630;9.000;2022-07-30T04:31:42;15.40;99.90
5786;DHT22;2919;48.630;9.000;2022-07-30T04:34:12;15.40;99.90
5786;DHT22;2919;48.630;9.000;2022-07-30T04:36:38;15.40;99.90
5786;DHT22;2919;48.630;9.000;2022-07-30T04:39:04;15.40;99.90
5786;DHT22;2919;48.630;9.000;2022-07-30T04:41:30;15.40;99.90
5786;DHT22;2919;48.630;9.000;2022-07-30T04:43:56;15.40;99.90
5786;DHT22;2919;48.630;9.000;2022-07-30T04:46:21;15.40;99.90
5786;DHT22;2919;48.630;9.000;2022-07-30T04:48:47;15.50;99.90
5786;DHT22;2919;48.630;9.000;2022-07-30T04:51:19;15.50;99.90
5786;DHT22;2919;48.630;9.000;2022-07-30T04:53:46;15.50;99.90
5786;DHT22;2919;48.630;9.000;2022-07-30T04:56:14;15.50;99.90
5786;DHT22;2919;48.630;9.000;2022-07-30T04:58:41;15.60;99.90
5786;DHT22;2919;48.630;9.000;2022-07-30T05:01:08;15.60;99.90
5786;DHT22;2919;48.630;9.000;2022-07-30T05:03:36;15.60;99.90
5786;DHT22;2919;48.630;9.000;2022-07-30T05:06:04;15.60;99.90
5786;DHT22;2919;48.630;9.000;2022-07-30T05:08:30;15.60;99.90
5786;DHT22;2919;48.630;9.000;2022-07-30T05:10:56;15.60;99.90
5786;DHT22;2919;48.630;9.000;2022-07-30T05:13:22;15.70;99.90
5786;DHT22;2919;48.630;9.000;2022-07-30T05:15:48;15.70;99.90
5786;DHT22;2919;48.630;9.000;2022-07-30T05:18:14;15.70;99.90
5786;DHT22;2919;48.630;9.000;2022-07-30T05:20:39;15.80;99.90
5786;DHT22;2919;48.630;9.000;2022-07-30T05:23:05;15.90;99.90
5786;DHT22;2919;48.630;9.000;2022-07-30T05:25:31;15.90;99.90
5786;DHT22;2919;48.630;9.000;2022-07-30T05:27:56;16.00;99.90
5786;DHT22;2919;48.630;9.000;2022-07-30T05:30:23;16.10;99.90
5786;DHT22;2919;48.630;9.000;2022-07-30T05:32:49;16.30;99.90
5786;DHT22;2919;48.630;9.000;2022-07-30T05:35:15;16.40;99.90
5786;DHT22;2919;48.630;9.000;2022-07-30T05:37:41;16.50;99.90
5786;DHT22;2919;48.630;9.000;2022-07-30T05:40:07;16.60;99.90
5786;DHT22;2919;48.630;9.000;2022-07-30T05:42:32;16.80;99.90
5786;DHT22;2919;48.630;9.000;2022-07-30T05:44:58;16.90;99.90
5786;DHT22;2919;48.630;9.000;2022-07-30T05:47:25;16.90;99.90
5786;DHT22;2919;48.630;9.000;2022-07-30T05:49:51;17.00;99.90
5786;DHT22;2919;48.630;9.000;2022-07-30T05:52:16;17.00;99.90
5786;DHT22;2919;48.630;9.000;2022-07-30T05:54:42;17.00;99.90
5786;DHT22;2919;48.630;9.000;2022-07-30T05:57:09;17.00;99.90
5786;DHT22;2919;48.630;9.000;2022-07-30T05:59:34;17.10;99.90
5786;DHT22;2919;48.630;9.000;2022-07-30T06:02:00;17.10;99.90
5786;DHT22;2919;48.630;9.000;2022-07-30T06:04:27;17.20;99.90
5786;DHT22;2919;48.630;9.000;2022-07-30T06:06:53;17.30;99.90
5786;DHT22;2919;48.630;9.000;2022-07-30T06:09:19;17.40;99.90
5786;DHT22;2919;48.630;9.000;2022-07-30T06:11:45;17.50;99.90
5786;DHT22;2919;48.630;9.000;2022-07-30T06:14:11;17.60;99.90
5786;DHT22;2919;48.630;9.000;2022-07-30T06:16:37;17.70;99.90
5786;DHT22;2919;48.630;9.000;2022-07-30T06:19:03;17.70;99.90
5786;DHT22;2919;48.630;9.000;2022-07-30T06:21:28;17.80;99.90
5786;DHT22;2919;48.630;9.000;2022-07-30T06:23:54;17.90;99.90
5786;DHT22;2919;48.630;9.000;2022-07-30T06:26:19;18.00;99.90
5786;DHT22;2919;48.630;9.000;2022-07-30T06:28:45;18.00;99.90
5786;DHT22;2919;48.630;9.000;2022-07-30T06:31:11;18.10;99.90
5786;DHT22;2919;48.630;9.000;2022-07-30T06:33:36;18.10;99.90
5786;DHT22;2919;48.630;9.000;2022-07-30T06:36:02;18.20;99.90
5786;DHT22;2919;48.630;9.000;2022-07-30T06:38:28;18.30;99.90
5786;DHT22;2919;48.630;9.000;2022-07-30T06:40:54;18.40;99.90
5786;DHT22;2919;48.630;9.000;2022-07-30T06:43:19;18.50;99.90
5786;DHT22;2919;48.630;9.000;2022-07-30T06:45:45;18.60;99.90
5786;DHT22;2919;48.630;9.000;2022-07-30T06:48:11;18.60;99.90
5786;DHT22;2919;48.630;9.000;2022-07-30T06:50:37;18.70;99.90
5786;DHT22;2919;48.630;9.000;2022-07-30T06:53:02;18.80;99.90
5786;DHT22;2919;48.630;9.000;2022-07-30T06:55:28;18.90;99.90
5786;DHT22;2919;48.630;9.000;2022-07-30T06:57:54;18.90;99.90
5786;DHT22;2919;48.630;9.000;2022-07-30T07:00:19;19.10;99.90
5786;DHT22;2919;48.630;9.000;2022-07-30T07:02:45;19.20;99.90
5786;DHT22;2919;48.630;9.000;2022-07-30T07:05:11;19.40;99.90
5786;DHT22;2919;48.630;9.000;2022-07-30T07:07:37;19.60;99.90
5786;DHT22;2919;48.630;9.000;2022-07-30T07:10:03;19.80;99.90
5786;DHT22;2919;48.630;9.000;2022-07-30T07:12:28;20.00;99.90
5786;DHT22;2919;48.630;9.000;2022-07-30T07:14:54;20.40;99.10
5786;DHT22;2919;48.630;9.000;2022-07-30T07:17:20;20.40;99.10
5786;DHT22;2919;48.630;9.000;2022-07-30T07:19:45;20.60;98.50
5786;DHT22;2919;48.630;9.000;2022-07-30T07:22:11;20.60;98.80
5786;DHT22;2919;48.630;9.000;2022-07-30T07:24:37;20.70;98.40
5786;DHT22;2919;48.630;9.000;2022-07-30T07:27:02;20.70;98.20
5786;DHT22;2919;48.630;9.000;2022-07-30T07:29:28;21.00;97.80
5786;DHT22;2919;48.630;9.000;2022-07-30T07:31:54;21.40;97.90
5786;DHT22;2919;48.630;9.000;2022-07-30T07:34:19;21.80;97.20
5786;DHT22;2919;48.630;9.000;2022-07-30T07:36:45;22.20;96.30
5786;DHT22;2919;48.630;9.000;2022-07-30T07:39:10;22.40;95.10
5786;DHT22;2919;48.630;9.000;2022-07-30T07:41:36;23.10;93.90
5786;DHT22;2919;48.630;9.000;2022-07-30T07:44:04;23.60;93.90
5786;DHT22;2919;48.630;9.000;2022-07-30T07:46:30;24.50;91.70
5786;DHT22;2919;48.630;9.000;2022-07-30T07:48:56;25.50;84.70
5786;DHT22;2919;48.630;9.000;2022-07-30T07:51:21;25.90;81.40
5786;DHT22;2919;48.630;9.000;2022-07-30T07:53:47;26.80;79.70
5786;DHT22;2919;48.630;9.000;2022-07-30T07:56:13;27.10;77.20
5786;DHT22;2919;48.630;9.000;2022-07-30T07:58:39;27.10;74.90
5786;DHT22;2919;48.630;9.000;2022-07-30T08:01:05;27.50;73.20
5786;DHT22;2919;48.630;9.000;2022-07-30T08:03:31;27.00;76.30
5786;DHT22;2919;48.630;9.000;2022-07-30T08:05:56;27.40;73.40
5786;DHT22;2919;48.630;9.000;2022-07-30T08:08:22;27.50;72.40
5786;DHT22;2919;48.630;9.000;2022-07-30T08:10:48;27.10;72.80
5786;DHT22;2919;48.630;9.000;2022-07-30T08:13:14;27.20;71.60
5786;DHT22;2919;48.630;9.000;2022-07-30T08:15:40;26.80;72.50
5786;DHT22;2919;48.630;9.000;2022-07-30T08:18:05;26.60;74.60
5786;DHT22;2919;48.630;9.000;2022-07-30T08:20:32;26.40;77.20
5786;DHT22;2919;48.630;9.000;2022-07-30T08:23:00;27.30;70.40
5786;DHT22;2919;48.630;9.000;2022-07-30T08:25:26;27.10;71.20
5786;DHT22;2919;48.630;9.000;2022-07-30T08:27:52;27.10;70.80
5786;DHT22;2919;48.630;9.000;2022-07-30T08:30:18;27.30;70.70
5786;DHT22;2919;48.630;9.000;2022-07-30T08:32:44;26.30;71.00
5786;DHT22;2919;48.630;9.000;2022-07-30T08:35:10;26.20;70.80
5786;DHT22;2919;48.630;9.000;2022-07-30T08:37:36;26.40;70.20
5786;DHT22;2919;48.630;9.000;2022-07-30T08:40:03;26.60;70.30
5786;DHT22;2919;48.630;9.000;2022-07-30T08:42:30;26.90;68.60
5786;DHT22;2919;48.630;9.000;2022-07-30T08:44:58;26.60;67.50
5786;DHT22;2919;48.630;9.000;2022-07-30T08:47:29;26.20;68.60
5786;DHT22;2919;48.630;9.000;2022-07-30T08:49:56;25.80;69.60
5786;DHT22;2919;48.630;9.000;2022-07-30T08:52:26;25.20;72.80
5786;DHT22;2919;48.630;9.000;2022-07-30T08:54:53;24.80;73.40
5786;DHT22;2919;48.630;9.000;2022-07-30T08:57:19;24.90;73.40
5786;DHT22;2919;48.630;9.000;2022-07-30T08:59:45;25.20;73.40
5786;DHT22;2919;48.630;9.000;2022-07-30T09:02:12;25.50;70.30
5786;DHT22;2919;48.630;9.000;2022-07-30T09:04:38;25.30;72.10
5786;DHT22;2919;48.630;9.000;2022-07-30T09:07:04;25.40;72.20
5786;DHT22;2919;48.630;9.000;2022-07-30T09:09:29;25.30;71.40
5786;DHT22;2919;48.630;9.000;2022-07-30T09:11:55;25.60;70.40
5786;DHT22;2919;48.630;9.000;2022-07-30T09:14:20;26.10;70.70
5786;DHT22;2919;48.630;9.000;2022-07-30T09:16:46;26.30;69.80
5786;DHT22;2919;48.630;9.000;2022-07-30T09:19:20;25.60;69.00
5786;DHT22;2919;48.630;9.000;2022-07-30T09:21:59;25.00;70.60
5786;DHT22;2919;48.630;9.000;2022-07-30T09:24:25;24.70;73.30
5786;DHT22;2919;48.630;9.000;2022-07-30T09:29:22;25.90;70.30
5786;DHT22;2919;48.630;9.000;2022-07-30T09:32:01;26.60;66.10
5786;DHT22;2919;48.630;9.000;2022-07-30T09:34:28;26.30;67.50
5786;DHT22;2919;48.630;9.000;2022-07-30T09:36:55;26.40;65.40
5786;DHT22;2919;48.630;9.000;2022-07-30T09:39:47;25.80;67.40
5786;DHT22;2919;48.630;9.000;2022-07-30T09:42:27;25.20;68.80
5786;DHT22;2919;48.630;9.000;2022-07-30T09:45:09;25.50;68.40
5786;DHT22;2919;48.630;9.000;2022-07-30T09:47:37;25.80;67.70
5786;DHT22;2919;48.630;9.000;2022-07-30T09:50:13;25.80;67.70
5786;DHT22;2919;48.630;9.000;2022-07-30T09:52:41;26.20;66.40
5786;DHT22;2919;48.630;9.000;2022-07-30T09:55:08;25.60;69.30
5786;DHT22;2919;48.630;9.000;2022-07-30T09:57:34;25.30;69.70
5786;DHT22;2919;48.630;9.000;2022-07-30T10:00:18;25.00;69.20
5786;DHT22;2919;48.630;9.000;2022-07-30T10:02:44;25.00;66.90
5786;DHT22;2919;48.630;9.000;2022-07-30T10:05:14;25.10;68.40
5786;DHT22;2919;48.630;9.000;2022-07-30T10:07:59;25.50;72.30
5786;DHT22;2919;48.630;9.000;2022-07-30T10:10:27;25.80;70.10
5786;DHT22;2919;48.630;9.000;2022-07-30T10:12:56;25.80;69.20
5786;DHT22;2919;48.630;9.000;2022-07-30T10:15:24;25.30;70.00
5786;DHT22;2919;48.630;9.000;2022-07-30T10:17:52;25.20;69.50
5786;DHT22;2919;48.630;9.000;2022-07-30T10:20:18;25.40;69.20
5786;DHT22;2919;48.630;9.000;2022-07-30T10:22:44;25.70;69.50
5786;DHT22;2919;48.630;9.000;2022-07-30T10:25:11;25.60;67.20
5786;DHT22;2919;48.630;9.000;2022-07-30T10:27:38;25.80;69.00
5786;DHT22;2919;48.630;9.000;2022-07-30T10:30:04;25.40;69.50
5786;DHT22;2919;48.630;9.000;2022-07-30T10:32:31;25.40;69.80
5786;DHT22;2919;48.630;9.000;2022-07-30T10:34:57;25.50;70.10
5786;DHT22;2919;48.630;9.000;2022-07-30T10:37:25;25.60;67.00
5786;DHT22;2919;48.630;9.000;2022-07-30T10:40:42;25.90;66.80
5786;DHT22;2919;48.630;9.000;2022-07-30T10:48:42;26.20;64.30
5786;DHT22;2919;48.630;9.000;2022-07-30T10:51:08;26.20;66.20
5786;DHT22;2919;48.630;9.000;2022-07-30T10:53:38;25.90;66.60
5786;DHT22;2919;48.630;9.000;2022-07-30T10:56:12;25.40;69.50
5786;DHT22;2919;48.630;9.000;2022-07-30T10:59:05;25.30;70.20
5786;DHT22;2919;48.630;9.000;2022-07-30T11:06:44;25.20;68.10
5786;DHT22;2919;48.630;9.000;2022-07-30T11:09:36;25.50;66.90
5786;DHT22;2919;48.630;9.000;2022-07-30T11:12:04;25.70;65.80
5786;DHT22;2919;48.630;9.000;2022-07-30T11:17:17;25.60;68.50
5786;DHT22;2919;48.630;9.000;2022-07-30T11:22:40;26.00;66.50
5786;DHT22;2919;48.630;9.000;2022-07-30T11:27:47;26.10;65.30
5786;DHT22;2919;48.630;9.000;2022-07-30T11:32:41;26.20;65.70
5786;DHT22;2919;48.630;9.000;2022-07-30T11:35:10;25.90;65.60
5786;DHT22;2919;48.630;9.000;2022-07-30T11:38:06;25.60;67.50
5786;DHT22;2919;48.630;9.000;2022-07-30T11:40:37;25.40;65.80
5786;DHT22;2919;48.630;9.000;2022-07-30T11:45:48;25.40;65.80
5786;DHT22;2919;48.630;9.000;2022-07-30T11:48:16;25.50;63.40
5786;DHT22;2919;48.630;9.000;2022-07-30T11:50:44;25.70;64.10
5786;DHT22;2919;48.630;9.000;2022-07-30T11:53:28;25.80;64.50
5786;DHT22;2919;48.630;9.000;2022-07-30T11:55:58;25.60;64.40
5786;DHT22;2919;48.630;9.000;2022-07-30T11:58:37;25.40;64.80
5786;DHT22;2919;48.630;9.000;2022-07-30T12:01:11;25.40;65.90
5786;DHT22;2919;48.630;9.000;2022-07-30T12:03:42;25.60;64.60
5786;DHT22;2919;48.630;9.000;2022-07-30T12:06:13;25.70;62.00
5786;DHT22;2919;48.630;9.000;2022-07-30T12:08:46;25.40;64.30
5786;DHT22;2919;48.630;9.000;2022-07-30T12:11:12;25.30;65.10
5786;DHT22;2919;48.630;9.000;2022-07-30T12:13:39;25.30;65.50
5786;DHT22;2919;48.630;9.000;2022-07-30T12:16:24;25.40;61.90
5786;DHT22;2919;48.630;9.000;2022-07-30T12:18:50;25.50;63.30
5786;DHT22;2919;48.630;9.000;2022-07-30T12:21:15;25.70;64.20
5786;DHT22;2919;48.630;9.000;2022-07-30T12:23:42;25.80;63.80
5786;DHT22;2919;48.630;9.000;2022-07-30T12:26:22;25.70;65.80
5786;DHT22;2919;48.630;9.000;2022-07-30T12:28:49;25.50;63.00
5786;DHT22;2919;48.630;9.000;2022-07-30T12:31:15;25.50;61.60
5786;DHT22;2919;48.630;9.000;2022-07-30T12:33:41;25.90;63.40
5786;DHT22;2919;48.630;9.000;2022-07-30T12:36:06;26.30;61.80
5786;DHT22;2919;48.630;9.000;2022-07-30T12:38:44;26.20;62.50
5786;DHT22;2919;48.630;9.000;2022-07-30T12:41:13;25.80;62.30
5786;DHT22;2919;48.630;9.000;2022-07-30T12:43:56;25.70;63.60
5786;DHT22;2919;48.630;9.000;2022-07-30T12:46:26;25.70;62.60
5786;DHT22;2919;48.630;9.000;2022-07-30T12:48:59;25.40;64.30
5786;DHT22;2919;48.630;9.000;2022-07-30T12:51:29;25.40;64.50
5786;DHT22;2919;48.630;9.000;2022-07-30T12:53:57;25.50;65.10
5786;DHT22;2919;48.630;9.000;2022-07-30T12:56:28;25.40;63.20
5786;DHT22;2919;48.630;9.000;2022-07-30T12:58:55;25.30;65.10
5786;DHT22;2919;48.630;9.000;2022-07-30T13:04:06;25.40;65.60
5786;DHT22;2919;48.630;9.000;2022-07-30T13:06:31;25.80;64.40
5786;DHT22;2919;48.630;9.000;2022-07-30T13:08:58;26.30;64.40
5786;DHT22;2919;48.630;9.000;2022-07-30T13:11:26;26.20;62.70
5786;DHT22;2919;48.630;9.000;2022-07-30T13:14:01;25.80;63.60
5786;DHT22;2919;48.630;9.000;2022-07-30T13:16:30;25.60;63.20
5786;DHT22;2919;48.630;9.000;2022-07-30T13:18:56;25.40;65.10
5786;DHT22;2919;48.630;9.000;2022-07-30T13:21:22;25.40;64.30
5786;DHT22;2919;48.630;9.000;2022-07-30T13:23:49;25.30;65.20
5786;DHT22;2919;48.630;9.000;2022-07-30T13:26:15;25.60;64.50
5786;DHT22;2919;48.630;9.000;2022-07-30T13:28:41;26.10;63.90
5786;DHT22;2919;48.630;9.000;2022-07-30T13:31:07;26.50;61.50
5786;DHT22;2919;48.630;9.000;2022-07-30T13:33:35;26.50;61.80
5786;DHT22;2919;48.630;9.000;2022-07-30T13:36:02;26.60;64.30
5786;DHT22;2919;48.630;9.000;2022-07-30T13:38:28;27.00;62.20
5786;DHT22;2919;48.630;9.000;2022-07-30T13:40:54;27.00;63.80
5786;DHT22;2919;48.630;9.000;2022-07-30T13:43:20;27.10;66.30
5786;DHT22;2919;48.630;9.000;2022-07-30T13:45:47;27.20;61.30
5786;DHT22;2919;48.630;9.000;2022-07-30T13:48:13;26.80;65.80
5786;DHT22;2919;48.630;9.000;2022-07-30T13:50:39;26.60;62.20
5786;DHT22;2919;48.630;9.000;2022-07-30T13:53:05;26.40;64.90
5786;DHT22;2919;48.630;9.000;2022-07-30T13:55:31;26.30;63.80
5786;DHT22;2919;48.630;9.000;2022-07-30T13:57:57;26.50;64.30
5786;DHT22;2919;48.630;9.000;2022-07-30T14:00:23;26.80;63.70
5786;DHT22;2919;48.630;9.000;2022-07-30T14:02:49;27.10;64.40
5786;DHT22;2919;48.630;9.000;2022-07-30T14:05:15;27.40;62.80
5786;DHT22;2919;48.630;9.000;2022-07-30T14:07:41;27.40;63.60
5786;DHT22;2919;48.630;9.000;2022-07-30T14:10:07;27.20;63.30
5786;DHT22;2919;48.630;9.000;2022-07-30T14:12:34;26.90;62.80
5786;DHT22;2919;48.630;9.000;2022-07-30T14:14:59;27.00;65.10
5786;DHT22;2919;48.630;9.000;2022-07-30T14:17:25;27.30;62.00
5786;DHT22;2919;48.630;9.000;2022-07-30T14:19:51;27.10;60.80
5786;DHT22;2919;48.630;9.000;2022-07-30T14:22:19;26.60;62.70
5786;DHT22;2919;48.630;9.000;2022-07-30T14:24:45;26.20;63.00
5786;DHT22;2919;48.630;9.000;2022-07-30T14:27:11;26.00;67.30
5786;DHT22;2919;48.630;9.000;2022-07-30T14:29:37;26.00;63.00
5786;DHT22;2919;48.630;9.000;2022-07-30T14:32:03;25.80;67.40
5786;DHT22;2919;48.630;9.000;2022-07-30T14:34:29;25.70;66.40
5786;DHT22;2919;48.630;9.000;2022-07-30T14:36:55;25.70;66.30
5786;DHT22;2919;48.630;9.000;2022-07-30T14:39:20;25.70;66.20
5786;DHT22;2919;48.630;9.000;2022-07-30T14:41:46;25.70;65.10
5786;DHT22;2919;48.630;9.000;2022-07-30T14:44:11;25.70;65.90
5786;DHT22;2919;48.630;9.000;2022-07-30T14:46:39;25.60;65.80
5786;DHT22;2919;48.630;9.000;2022-07-30T14:49:05;25.80;66.30
5786;DHT22;2919;48.630;9.000;2022-07-30T14:51:31;25.90;65.40
5786;DHT22;2919;48.630;9.000;2022-07-30T14:53:57;25.90;64.10
5786;DHT22;2919;48.630;9.000;2022-07-30T14:56:22;26.00;64.60
5786;DHT22;2919;48.630;9.000;2022-07-30T14:58:49;26.10;63.30
5786;DHT22;2919;48.630;9.000;2022-07-30T15:01:15;26.10;67.80
5786;DHT22;2919;48.630;9.000;2022-07-30T15:03:41;26.20;64.80
5786;DHT22;2919;48.630;9.000;2022-07-30T15:06:07;26.20;64.60
5786;DHT22;2919;48.630;9.000;2022-07-30T15:08:34;26.30;62.70
5786;DHT22;2919;48.630;9.000;2022-07-30T15:11:00;26.40;63.10
5786;DHT22;2919;48.630;9.000;2022-07-30T15:13:26;26.50;61.80
5786;DHT22;2919;48.630;9.000;2022-07-30T15:15:51;26.40;62.80
5786;DHT22;2919;48.630;9.000;2022-07-30T15:18:17;26.30;63.30
5786;DHT22;2919;48.630;9.000;2022-07-30T15:20:43;26.70;62.70
5786;DHT22;2919;48.630;9.000;2022-07-30T15:23:08;26.80;62.80
5786;DHT22;2919;48.630;9.000;2022-07-30T15:25:34;26.80;61.50
5786;DHT22;2919;48.630;9.000;2022-07-30T15:28:00;26.90;60.70
5786;DHT22;2919;48.630;9.000;2022-07-30T15:30:25;26.60;61.30
5786;DHT22;2919;48.630;9.000;2022-07-30T15:32:51;26.40;61.60
5786;DHT22;2919;48.630;9.000;2022-07-30T15:35:19;26.20;62.00
5786;DHT22;2919;48.630;9.000;2022-07-30T15:37:45;26.20;61.60
5786;DHT22;2919;48.630;9.000;2022-07-30T15:40:10;26.50;62.70
5786;DHT22;2919;48.630;9.000;2022-07-30T15:42:36;26.60;61.60
5786;DHT22;2919;48.630;9.000;2022-07-30T15:45:03;26.90;64.40
5786;DHT22;2919;48.630;9.000;2022-07-30T15:47:29;27.20;63.00
5786;DHT22;2919;48.630;9.000;2022-07-30T15:49:54;27.40;62.90
5786;DHT22;2919;48.630;9.000;2022-07-30T15:52:20;27.50;60.90
5786;DHT22;2919;48.630;9.000;2022-07-30T15:54:46;27.50;62.40
5786;DHT22;2919;48.630;9.000;2022-07-30T15:57:11;27.60;59.00
5786;DHT22;2919;48.630;9.000;2022-07-30T15:59:37;27.60;59.30
5786;DHT22;2919;48.630;9.000;2022-07-30T16:02:03;27.40;59.90
5786;DHT22;2919;48.630;9.000;2022-07-30T16:04:29;27.20;59.80
5786;DHT22;2919;48.630;9.000;2022-07-30T16:06:57;27.10;60.10
5786;DHT22;2919;48.630;9.000;2022-07-30T16:09:23;27.10;61.80
5786;DHT22;2919;48.630;9.000;2022-07-30T16:11:49;27.00;62.00
5786;DHT22;2919;48.630;9.000;2022-07-30T16:14:15;26.80;62.40
5786;DHT22;2919;48.630;9.000;2022-07-30T16:16:41;26.50;61.10
5786;DHT22;2919;48.630;9.000;2022-07-30T16:19:07;26.30;61.80
5786;DHT22;2919;48.630;9.000;2022-07-30T16:21:33;26.10;62.30
5786;DHT22;2919;48.630;9.000;2022-07-30T16:23:59;25.90;63.40
5786;DHT22;2919;48.630;9.000;2022-07-30T16:26:24;26.00;62.60
5786;DHT22;2919;48.630;9.000;2022-07-30T16:28:50;26.10;63.80
5786;DHT22;2919;48.630;9.000;2022-07-30T16:31:16;26.10;63.70
5786;DHT22;2919;48.630;9.000;2022-07-30T16:33:44;26.30;61.90
5786;DHT22;2919;48.630;9.000;2022-07-30T16:36:10;26.30;61.00
5786;DHT22;2919;48.630;9.000;2022-07-30T16:38:36;26.20;64.20
5786;DHT22;2919;48.630;9.000;2022-07-30T16:41:02;26.30;64.40